sensor_id;sensor_type;location;lat;lon;timestamp;P1;durP1;ratioP1;P2;durP2;ratioP2
37077;SDS011;22989;55.998;37.212;2023-03-21T00:00:29;7.65;;;4.60;;
37077;SDS011;22989;55.998;37.212;2023-03-21T00:02:56;11.15;;;4.75;;
37077;SDS011;22989;55.998;37.212;2023-03-21T00:05:21;8.68;;;4.78;;
37077;SDS011;22989;55.998;37.212;2023-03-21T00:07:47;7.35;;;4.47;;
37077;SDS011;22989;55.998;37.212;2023-03-21T00:10:13;11.30;;;4.55;;
37077;SDS011;22989;55.998;37.212;2023-03-21T00:12:39;8.23;;;4.88;;
37077;SDS011;22989;55.998;37.212;2023-03-21T00:15:05;14.63;;;4.50;;
37077;SDS011;22989;55.998;37.212;2023-03-21T00:17:32;7.15;;;4.28;;
37077;SDS011;22989;55.998;37.212;2023-03-21T00:20:02;9.77;;;4.85;;
37077;SDS011;22989;55.998;37.212;2023-03-21T00:22:35;10.52;;;4.70;;
37077;SDS011;22989;55.998;37.212;2023-03-21T00:25:01;9.07;;;4.70;;
37077;SDS011;22989;55.998;37.212;2023-03-21T00:27:26;10.52;;;4.50;;
37077;SDS011;22989;55.998;37.212;2023-03-21T00:29:53;9.07;;;4.50;;
37077;SDS011;22989;55.998;37.212;2023-03-21T00:32:20;11.13;;;4.53;;
37077;SDS011;22989;55.998;37.212;2023-03-21T00:34:46;11.43;;;4.68;;
37077;SDS011;22989;55.998;37.212;2023-03-21T00:37:14;8.98;;;4.35;;
37077;SDS011;22989;55.998;37.212;2023-03-21T00:39:43;8.85;;;4.72;;
37077;SDS011;22989;55.998;37.212;2023-03-21T00:42:16;12.00;;;4.95;;
37077;SDS011;22989;55.998;37.212;2023-03-21T00:44:42;8.35;;;4.30;;
37077;SDS011;22989;55.998;37.212;2023-03-21T00:47:12;8.75;;;5.05;;
37077;SDS011;22989;55.998;37.212;2023-03-21T00:49:38;12.45;;;5.55;;
37077;SDS011;22989;55.998;37.212;2023-03-21T00:52:04;11.45;;;4.80;;
37077;SDS011;22989;55.998;37.212;2023-03-21T00:54:32;8.32;;;5.20;;
37077;SDS011;22989;55.998;37.212;2023-03-21T00:56:59;15.93;;;5.80;;
37077;SDS011;22989;55.998;37.212;2023-03-21T00:59:28;10.98;;;5.03;;
37077;SDS011;22989;55.998;37.212;2023-03-21T01:01:54;8.60;;;4.75;;
37077;SDS011;22989;55.998;37.212;2023-03-21T01:04:20;7.07;;;4.60;;
37077;SDS011;22989;55.998;37.212;2023-03-21T01:06:51;8.98;;;4.88;;
37077;SDS011;22989;55.998;37.212;2023-03-21T01:09:18;12.20;;;5.35;;
37077;SDS011;22989;55.998;37.212;2023-03-21T01:11:46;10.07;;;5.00;;
37077;SDS011;22989;55.998;37.212;2023-03-21T01:14:12;8.45;;;5.15;;
37077;SDS011;22989;55.998;37.212;2023-03-21T01:16:40;11.25;;;4.97;;
37077;SDS011;22989;55.998;37.212;2023-03-21T01:19:06;10.02;;;5.13;;
37077;SDS011;22989;55.998;37.212;2023-03-21T01:21:33;8.77;;;4.97;;
37077;SDS011;22989;55.998;37.212;2023-03-21T01:23:59;10.82;;;5.07;;
37077;SDS011;22989;55.998;37.212;2023-03-21T01:26:25;8.85;;;4.53;;
37077;SDS011;22989;55.998;37.212;2023-03-21T01:28:51;17.42;;;5.13;;
37077;SDS011;22989;55.998;37.212;2023-03-21T01:31:17;8.20;;;4.82;;
37077;SDS011;22989;55.998;37.212;2023-03-21T01:33:43;9.05;;;4.82;;
37077;SDS011;22989;55.998;37.212;2023-03-21T01:36:15;10.13;;;4.55;;
37077;SDS011;22989;55.998;37.212;2023-03-21T01:38:43;8.85;;;4.30;;
37077;SDS011;22989;55.998;37.212;2023-03-21T01:41:32;8.90;;;4.30;;
37077;SDS011;22989;55.998;37.212;2023-03-21T01:43:57;7.03;;;3.92;;
37077;SDS011;22989;55.998;37.212;2023-03-21T01:49:45;7.80;;;4.35;;
37077;SDS011;22989;55.998;37.212;2023-03-21T01:52:28;12.10;;;4.50;;
37077;SDS011;22989;55.998;37.212;2023-03-21T01:54:57;6.10;;;4.28;;
37077;SDS011;22989;55.998;37.212;2023-03-21T01:57:35;6.15;;;4.10;;
37077;SDS011;22989;55.998;37.212;2023-03-21T02:00:06;10.00;;;4.63;;
37077;SDS011;22989;55.998;37.212;2023-03-21T02:02:48;10.32;;;4.82;;
37077;SDS011;22989;55.998;37.212;2023-03-21T02:08:20;7.00;;;4.22;;
37077;SDS011;22989;55.998;37.212;2023-03-21T02:10:48;7.70;;;4.47;;
37077;SDS011;22989;55.998;37.212;2023-03-21T02:13:25;7.97;;;4.45;;
37077;SDS011;22989;55.998;37.212;2023-03-21T02:15:58;8.18;;;4.35;;
37077;SDS011;22989;55.998;37.212;2023-03-21T02:18:38;11.38;;;4.90;;
37077;SDS011;22989;55.998;37.212;2023-03-21T02:24:38;6.78;;;4.57;;
37077;SDS011;22989;55.998;37.212;2023-03-21T02:27:25;6.60;;;4.22;;
37077;SDS011;22989;55.998;37.212;2023-03-21T02:33:14;10.48;;;5.07;;
37077;SDS011;22989;55.998;37.212;2023-03-21T02:38:45;12.70;;;5.47;;
37077;SDS011;22989;55.998;37.212;2023-03-21T02:41:38;11.70;;;4.80;;
37077;SDS011;22989;55.998;37.212;2023-03-21T02:44:10;13.65;;;5.72;;
37077;SDS011;22989;55.998;37.212;2023-03-21T02:46:48;9.73;;;5.30;;
37077;SDS011;22989;55.998;37.212;2023-03-21T02:51:47;8.35;;;5.20;;
37077;SDS011;22989;55.998;37.212;2023-03-21T02:54:16;8.68;;;5.63;;
37077;SDS011;22989;55.998;37.212;2023-03-21T02:56:45;12.40;;;5.82;;
37077;SDS011;22989;55.998;37.212;2023-03-21T02:59:14;12.63;;;5.38;;
37077;SDS011;22989;55.998;37.212;2023-03-21T03:01:42;10.25;;;5.43;;
37077;SDS011;22989;55.998;37.212;2023-03-21T03:04:29;7.00;;;5.18;;
37077;SDS011;22989;55.998;37.212;2023-03-21T03:09:27;9.65;;;6.10;;
37077;SDS011;22989;55.998;37.212;2023-03-21T03:12:06;12.80;;;5.63;;
37077;SDS011;22989;55.998;37.212;2023-03-21T03:17:25;8.65;;;5.50;;
37077;SDS011;22989;55.998;37.212;2023-03-21T03:20:07;8.35;;;5.00;;
37077;SDS011;22989;55.998;37.212;2023-03-21T03:22:38;9.32;;;5.90;;
37077;SDS011;22989;55.998;37.212;2023-03-21T03:25:13;10.63;;;6.07;;
37077;SDS011;22989;55.998;37.212;2023-03-21T03:27:45;15.02;;;6.32;;
37077;SDS011;22989;55.998;37.212;2023-03-21T03:30:13;12.25;;;6.85;;
37077;SDS011;22989;55.998;37.212;2023-03-21T03:32:45;9.05;;;6.07;;
37077;SDS011;22989;55.998;37.212;2023-03-21T03:35:16;9.63;;;5.80;;
37077;SDS011;22989;55.998;37.212;2023-03-21T03:37:47;17.95;;;7.00;;
37077;SDS011;22989;55.998;37.212;2023-03-21T03:43:32;11.15;;;5.90;;
37077;SDS011;22989;55.998;37.212;2023-03-21T03:46:43;12.63;;;6.93;;
37077;SDS011;22989;55.998;37.212;2023-03-21T03:49:12;15.88;;;6.75;;
37077;SDS011;22989;55.998;37.212;2023-03-21T03:54:50;12.18;;;6.70;;
37077;SDS011;22989;55.998;37.212;2023-03-21T03:57:18;11.55;;;6.43;;
37077;SDS011;22989;55.998;37.212;2023-03-21T03:59:44;10.60;;;6.18;;
37077;SDS011;22989;55.998;37.212;2023-03-21T04:02:17;12.80;;;7.43;;
37077;SDS011;22989;55.998;37.212;2023-03-21T04:04:45;12.73;;;7.13;;
37077;SDS011;22989;55.998;37.212;2023-03-21T04:07:12;9.50;;;5.78;;
37077;SDS011;22989;55.998;37.212;2023-03-21T04:09:39;10.50;;;6.78;;
37077;SDS011;22989;55.998;37.212;2023-03-21T04:12:07;15.10;;;6.50;;
37077;SDS011;22989;55.998;37.212;2023-03-21T04:14:34;14.27;;;6.40;;
37077;SDS011;22989;55.998;37.212;2023-03-21T04:17:03;11.88;;;6.07;;
37077;SDS011;22989;55.998;37.212;2023-03-21T04:19:30;11.77;;;6.72;;
37077;SDS011;22989;55.998;37.212;2023-03-21T04:21:57;12.32;;;6.47;;
37077;SDS011;22989;55.998;37.212;2023-03-21T04:24:23;14.27;;;7.15;;
37077;SDS011;22989;55.998;37.212;2023-03-21T04:26:48;13.82;;;6.72;;
37077;SDS011;22989;55.998;37.212;2023-03-21T04:29:41;14.32;;;6.75;;
37077;SDS011;22989;55.998;37.212;2023-03-21T04:32:09;11.52;;;6.95;;
37077;SDS011;22989;55.998;37.212;2023-03-21T04:34:48;14.25;;;6.78;;
37077;SDS011;22989;55.998;37.212;2023-03-21T04:37:16;16.20;;;6.80;;
37077;SDS011;22989;55.998;37.212;2023-03-21T04:39:44;14.95;;;6.13;;
37077;SDS011;22989;55.998;37.212;2023-03-21T04:42:13;15.35;;;6.65;;
37077;SDS011;22989;55.998;37.212;2023-03-21T04:44:40;12.07;;;6.40;;
37077;SDS011;22989;55.998;37.212;2023-03-21T04:47:06;9.82;;;6.13;;
37077;SDS011;22989;55.998;37.212;2023-03-21T04:49:32;10.05;;;5.78;;
37077;SDS011;22989;55.998;37.212;2023-03-21T04:51:58;11.07;;;6.10;;
37077;SDS011;22989;55.998;37.212;2023-03-21T04:54:25;12.55;;;6.55;;
37077;SDS011;22989;55.998;37.212;2023-03-21T04:56:51;10.63;;;5.82;;
37077;SDS011;22989;55.998;37.212;2023-03-21T04:59:17;16.42;;;6.72;;
37077;SDS011;22989;55.998;37.212;2023-03-21T05:01:44;17.98;;;6.63;;
37077;SDS011;22989;55.998;37.212;2023-03-21T05:04:10;13.20;;;7.55;;
37077;SDS011;22989;55.998;37.212;2023-03-21T05:06:38;12.20;;;7.10;;
37077;SDS011;22989;55.998;37.212;2023-03-21T05:09:06;14.30;;;7.45;;
37077;SDS011;22989;55.998;37.212;2023-03-21T05:11:34;11.48;;;6.68;;
37077;SDS011;22989;55.998;37.212;2023-03-21T05:14:03;13.98;;;6.70;;
37077;SDS011;22989;55.998;37.212;2023-03-21T05:16:30;11.60;;;6.35;;
37077;SDS011;22989;55.998;37.212;2023-03-21T05:18:57;13.35;;;6.57;;
37077;SDS011;22989;55.998;37.212;2023-03-21T05:21:28;11.98;;;6.60;;
37077;SDS011;22989;55.998;37.212;2023-03-21T05:23:59;16.25;;;6.78;;
37077;SDS011;22989;55.998;37.212;2023-03-21T05:26:29;13.95;;;6.25;;
37077;SDS011;22989;55.998;37.212;2023-03-21T05:29:05;14.55;;;6.38;;
37077;SDS011;22989;55.998;37.212;2023-03-21T05:31:32;11.32;;;6.05;;
37077;SDS011;22989;55.998;37.212;2023-03-21T05:34:06;13.18;;;5.95;;
37077;SDS011;22989;55.998;37.212;2023-03-21T05:36:33;11.25;;;6.28;;
37077;SDS011;22989;55.998;37.212;2023-03-21T05:39:02;10.07;;;6.00;;
37077;SDS011;22989;55.998;37.212;2023-03-21T05:41:30;9.85;;;5.60;;
37077;SDS011;22989;55.998;37.212;2023-03-21T05:43:58;14.95;;;6.40;;
37077;SDS011;22989;55.998;37.212;2023-03-21T05:46:24;16.05;;;6.28;;
37077;SDS011;22989;55.998;37.212;2023-03-21T05:48:50;14.68;;;7.80;;
37077;SDS011;22989;55.998;37.212;2023-03-21T05:51:16;14.63;;;7.32;;
37077;SDS011;22989;55.998;37.212;2023-03-21T05:53:42;19.98;;;7.68;;
37077;SDS011;22989;55.998;37.212;2023-03-21T05:56:09;13.68;;;7.82;;
37077;SDS011;22989;55.998;37.212;2023-03-21T05:59:04;16.33;;;7.95;;
37077;SDS011;22989;55.998;37.212;2023-03-21T06:01:34;13.38;;;7.78;;
37077;SDS011;22989;55.998;37.212;2023-03-21T06:04:09;13.43;;;7.60;;
37077;SDS011;22989;55.998;37.212;2023-03-21T06:06:35;20.55;;;10.10;;
37077;SDS011;22989;55.998;37.212;2023-03-21T06:09:02;24.67;;;9.30;;
37077;SDS011;22989;55.998;37.212;2023-03-21T06:11:31;16.77;;;8.73;;
37077;SDS011;22989;55.998;37.212;2023-03-21T06:14:17;15.32;;;8.30;;
37077;SDS011;22989;55.998;37.212;2023-03-21T06:16:46;15.43;;;8.32;;
37077;SDS011;22989;55.998;37.212;2023-03-21T06:19:12;17.25;;;8.60;;
37077;SDS011;22989;55.998;37.212;2023-03-21T06:21:56;16.48;;;8.05;;
37077;SDS011;22989;55.998;37.212;2023-03-21T06:24:22;15.40;;;8.13;;
37077;SDS011;22989;55.998;37.212;2023-03-21T06:26:48;16.42;;;8.38;;
37077;SDS011;22989;55.998;37.212;2023-03-21T06:29:13;18.20;;;8.65;;
37077;SDS011;22989;55.998;37.212;2023-03-21T06:31:45;17.92;;;9.40;;
37077;SDS011;22989;55.998;37.212;2023-03-21T06:34:11;16.38;;;9.27;;
37077;SDS011;22989;55.998;37.212;2023-03-21T06:36:37;17.80;;;9.00;;
37077;SDS011;22989;55.998;37.212;2023-03-21T06:39:03;18.27;;;9.07;;
37077;SDS011;22989;55.998;37.212;2023-03-21T06:41:29;19.75;;;9.57;;
37077;SDS011;22989;55.998;37.212;2023-03-21T06:44:01;22.25;;;9.48;;
37077;SDS011;22989;55.998;37.212;2023-03-21T06:46:31;18.67;;;9.45;;
37077;SDS011;22989;55.998;37.212;2023-03-21T06:48:56;18.40;;;9.15;;
37077;SDS011;22989;55.998;37.212;2023-03-21T06:51:23;20.02;;;8.73;;
37077;SDS011;22989;55.998;37.212;2023-03-21T06:54:09;17.83;;;9.10;;
37077;SDS011;22989;55.998;37.212;2023-03-21T06:56:52;17.77;;;8.05;;
37077;SDS011;22989;55.998;37.212;2023-03-21T06:59:26;21.42;;;9.40;;
37077;SDS011;22989;55.998;37.212;2023-03-21T07:02:21;18.73;;;9.35;;
37077;SDS011;22989;55.998;37.212;2023-03-21T07:04:58;16.88;;;9.63;;
37077;SDS011;22989;55.998;37.212;2023-03-21T07:07:26;18.20;;;9.60;;
37077;SDS011;22989;55.998;37.212;2023-03-21T07:09:54;19.67;;;9.70;;
37077;SDS011;22989;55.998;37.212;2023-03-21T07:12:21;21.02;;;9.20;;
37077;SDS011;22989;55.998;37.212;2023-03-21T07:15:07;18.13;;;10.00;;
37077;SDS011;22989;55.998;37.212;2023-03-21T07:17:35;16.50;;;8.43;;
37077;SDS011;22989;55.998;37.212;2023-03-21T07:20:01;12.27;;;7.88;;
37077;SDS011;22989;55.998;37.212;2023-03-21T07:22:31;17.88;;;8.55;;
37077;SDS011;22989;55.998;37.212;2023-03-21T07:24:57;17.33;;;8.45;;
37077;SDS011;22989;55.998;37.212;2023-03-21T07:27:22;20.17;;;8.48;;
37077;SDS011;22989;55.998;37.212;2023-03-21T07:29:48;12.63;;;8.00;;
37077;SDS011;22989;55.998;37.212;2023-03-21T07:32:14;14.85;;;8.15;;
37077;SDS011;22989;55.998;37.212;2023-03-21T07:34:40;17.73;;;7.75;;
37077;SDS011;22989;55.998;37.212;2023-03-21T07:37:07;19.25;;;7.70;;
37077;SDS011;22989;55.998;37.212;2023-03-21T07:39:33;11.93;;;7.15;;
37077;SDS011;22989;55.998;37.212;2023-03-21T07:41:59;16.23;;;7.88;;
37077;SDS011;22989;55.998;37.212;2023-03-21T07:44:35;11.95;;;7.25;;
37077;SDS011;22989;55.998;37.212;2023-03-21T07:47:02;11.00;;;6.75;;
37077;SDS011;22989;55.998;37.212;2023-03-21T07:49:28;11.23;;;6.40;;
37077;SDS011;22989;55.998;37.212;2023-03-21T07:51:54;12.02;;;6.97;;
37077;SDS011;22989;55.998;37.212;2023-03-21T07:54:19;14.50;;;7.78;;
37077;SDS011;22989;55.998;37.212;2023-03-21T07:56:47;16.20;;;7.82;;
37077;SDS011;22989;55.998;37.212;2023-03-21T07:59:12;11.52;;;6.97;;
37077;SDS011;22989;55.998;37.212;2023-03-21T08:01:38;12.48;;;7.25;;
37077;SDS011;22989;55.998;37.212;2023-03-21T08:04:04;13.15;;;7.20;;
37077;SDS011;22989;55.998;37.212;2023-03-21T08:06:29;8.90;;;6.43;;
37077;SDS011;22989;55.998;37.212;2023-03-21T08:08:57;10.43;;;6.97;;
37077;SDS011;22989;55.998;37.212;2023-03-21T08:11:23;17.02;;;8.35;;
37077;SDS011;22989;55.998;37.212;2023-03-21T08:13:48;10.95;;;6.57;;
37077;SDS011;22989;55.998;37.212;2023-03-21T08:16:15;9.02;;;5.65;;
37077;SDS011;22989;55.998;37.212;2023-03-21T08:18:42;8.55;;;5.53;;
37077;SDS011;22989;55.998;37.212;2023-03-21T08:21:07;8.07;;;5.45;;
37077;SDS011;22989;55.998;37.212;2023-03-21T08:23:33;9.13;;;5.60;;
37077;SDS011;22989;55.998;37.212;2023-03-21T08:26:00;9.02;;;5.22;;
37077;SDS011;22989;55.998;37.212;2023-03-21T08:28:26;9.55;;;5.45;;
37077;SDS011;22989;55.998;37.212;2023-03-21T08:30:52;7.68;;;5.35;;
37077;SDS011;22989;55.998;37.212;2023-03-21T08:33:18;10.00;;;5.25;;
37077;SDS011;22989;55.998;37.212;2023-03-21T08:35:44;14.13;;;5.60;;
37077;SDS011;22989;55.998;37.212;2023-03-21T08:38:10;7.38;;;4.90;;
37077;SDS011;22989;55.998;37.212;2023-03-21T08:40:36;8.50;;;5.47;;
37077;SDS011;22989;55.998;37.212;2023-03-21T08:43:02;11.25;;;6.30;;
37077;SDS011;22989;55.998;37.212;2023-03-21T08:45:28;10.43;;;6.20;;
37077;SDS011;22989;55.998;37.212;2023-03-21T08:47:54;9.48;;;6.45;;
37077;SDS011;22989;55.998;37.212;2023-03-21T08:50:22;12.27;;;6.93;;
37077;SDS011;22989;55.998;37.212;2023-03-21T08:52:51;14.02;;;5.40;;
37077;SDS011;22989;55.998;37.212;2023-03-21T08:55:17;7.65;;;4.85;;
37077;SDS011;22989;55.998;37.212;2023-03-21T08:57:43;12.15;;;5.50;;
37077;SDS011;22989;55.998;37.212;2023-03-21T09:00:11;8.75;;;5.78;;
37077;SDS011;22989;55.998;37.212;2023-03-21T09:02:39;7.03;;;5.10;;
37077;SDS011;22989;55.998;37.212;2023-03-21T09:05:06;8.82;;;5.35;;
37077;SDS011;22989;55.998;37.212;2023-03-21T09:07:33;10.02;;;5.35;;
37077;SDS011;22989;55.998;37.212;2023-03-21T09:10:07;11.40;;;5.70;;
37077;SDS011;22989;55.998;37.212;2023-03-21T09:12:35;8.45;;;5.35;;
37077;SDS011;22989;55.998;37.212;2023-03-21T09:15:01;7.63;;;5.03;;
37077;SDS011;22989;55.998;37.212;2023-03-21T09:17:28;8.30;;;5.30;;
37077;SDS011;22989;55.998;37.212;2023-03-21T09:19:55;10.40;;;4.80;;
37077;SDS011;22989;55.998;37.212;2023-03-21T09:22:23;12.15;;;4.95;;
37077;SDS011;22989;55.998;37.212;2023-03-21T09:24:49;9.73;;;5.18;;
37077;SDS011;22989;55.998;37.212;2023-03-21T09:27:16;11.63;;;5.45;;
37077;SDS011;22989;55.998;37.212;2023-03-21T09:29:42;9.82;;;5.32;;
37077;SDS011;22989;55.998;37.212;2023-03-21T09:32:09;7.00;;;4.90;;
37077;SDS011;22989;55.998;37.212;2023-03-21T09:34:36;6.07;;;3.42;;
37077;SDS011;22989;55.998;37.212;2023-03-21T09:37:08;6.50;;;4.60;;
37077;SDS011;22989;55.998;37.212;2023-03-21T09:45:04;7.18;;;4.60;;
37077;SDS011;22989;55.998;37.212;2023-03-21T09:47:36;7.47;;;4.55;;
37077;SDS011;22989;55.998;37.212;2023-03-21T09:50:21;6.90;;;4.60;;
37077;SDS011;22989;55.998;37.212;2023-03-21T09:55:59;6.45;;;4.35;;
37077;SDS011;22989;55.998;37.212;2023-03-21T10:01:02;7.40;;;5.20;;
37077;SDS011;22989;55.998;37.212;2023-03-21T10:03:35;7.55;;;4.57;;
37077;SDS011;22989;55.998;37.212;2023-03-21T10:06:09;5.93;;;4.25;;
37077;SDS011;22989;55.998;37.212;2023-03-21T10:08:39;7.40;;;5.13;;
37077;SDS011;22989;55.998;37.212;2023-03-21T10:13:47;12.23;;;5.30;;
37077;SDS011;22989;55.998;37.212;2023-03-21T10:16:41;8.02;;;4.88;;
37077;SDS011;22989;55.998;37.212;2023-03-21T10:19:09;7.93;;;4.50;;
37077;SDS011;22989;55.998;37.212;2023-03-21T10:21:44;7.63;;;4.70;;
37077;SDS011;22989;55.998;37.212;2023-03-21T10:24:13;6.78;;;4.57;;
37077;SDS011;22989;55.998;37.212;2023-03-21T10:26:42;10.57;;;4.63;;
37077;SDS011;22989;55.998;37.212;2023-03-21T10:29:11;17.48;;;4.70;;
37077;SDS011;22989;55.998;37.212;2023-03-21T10:31:39;5.78;;;4.50;;
37077;SDS011;22989;55.998;37.212;2023-03-21T10:34:12;5.95;;;4.25;;
37077;SDS011;22989;55.998;37.212;2023-03-21T10:36:39;4.82;;;3.80;;
37077;SDS011;22989;55.998;37.212;2023-03-21T10:39:06;5.47;;;4.13;;
37077;SDS011;22989;55.998;37.212;2023-03-21T10:41:40;6.13;;;3.55;;
37077;SDS011;22989;55.998;37.212;2023-03-21T10:44:07;4.43;;;3.35;;
37077;SDS011;22989;55.998;37.212;2023-03-21T10:46:33;3.78;;;3.30;;
37077;SDS011;22989;55.998;37.212;2023-03-21T10:49:00;5.32;;;3.38;;
37077;SDS011;22989;55.998;37.212;2023-03-21T10:51:26;3.97;;;3.28;;
37077;SDS011;22989;55.998;37.212;2023-03-21T10:53:57;5.65;;;3.33;;
37077;SDS011;22989;55.998;37.212;2023-03-21T10:56:25;5.65;;;3.80;;
37077;SDS011;22989;55.998;37.212;2023-03-21T10:58:58;4.78;;;3.30;;
37077;SDS011;22989;55.998;37.212;2023-03-21T11:01:34;3.90;;;3.00;;
37077;SDS011;22989;55.998;37.212;2023-03-21T11:04:05;5.75;;;3.00;;
37077;SDS011;22989;55.998;37.212;2023-03-21T11:06:41;5.72;;;3.25;;
37077;SDS011;22989;55.998;37.212;2023-03-21T11:09:16;4.80;;;3.15;;
37077;SDS011;22989;55.998;37.212;2023-03-21T11:14:24;5.22;;;3.70;;
37077;SDS011;22989;55.998;37.212;2023-03-21T11:16:52;4.60;;;2.92;;
37077;SDS011;22989;55.998;37.212;2023-03-21T11:19:19;5.82;;;3.47;;
37077;SDS011;22989;55.998;37.212;2023-03-21T11:21:56;5.55;;;3.70;;
37077;SDS011;22989;55.998;37.212;2023-03-21T11:24:23;4.75;;;3.20;;
37077;SDS011;22989;55.998;37.212;2023-03-21T11:26:53;4.50;;;3.30;;
37077;SDS011;22989;55.998;37.212;2023-03-21T11:29:33;5.88;;;3.00;;
37077;SDS011;22989;55.998;37.212;2023-03-21T11:32:11;3.42;;;3.05;;
37077;SDS011;22989;55.998;37.212;2023-03-21T11:35:05;9.95;;;3.13;;
37077;SDS011;22989;55.998;37.212;2023-03-21T11:37:43;6.15;;;3.38;;
37077;SDS011;22989;55.998;37.212;2023-03-21T11:42:41;3.17;;;2.70;;
37077;SDS011;22989;55.998;37.212;2023-03-21T11:45:18;3.40;;;2.70;;
37077;SDS011;22989;55.998;37.212;2023-03-21T11:47:47;3.30;;;2.42;;
37077;SDS011;22989;55.998;37.212;2023-03-21T11:50:19;2.90;;;2.60;;
37077;SDS011;22989;55.998;37.212;2023-03-21T12:06:33;3.67;;;2.55;;
37077;SDS011;22989;55.998;37.212;2023-03-21T12:09:14;5.38;;;2.70;;
37077;SDS011;22989;55.998;37.212;2023-03-21T12:17:13;3.72;;;2.60;;
37077;SDS011;22989;55.998;37.212;2023-03-21T12:22:46;4.35;;;2.78;;
37077;SDS011;22989;55.998;37.212;2023-03-21T12:25:41;6.18;;;3.50;;
37077;SDS011;22989;55.998;37.212;2023-03-21T12:39:45;4.15;;;2.80;;
37077;SDS011;22989;55.998;37.212;2023-03-21T12:45:05;3.60;;;2.63;;
37077;SDS011;22989;55.998;37.212;2023-03-21T12:47:37;4.53;;;2.85;;
37077;SDS011;22989;55.998;37.212;2023-03-21T12:56:12;4.97;;;3.03;;
37077;SDS011;22989;55.998;37.212;2023-03-21T12:58:46;4.38;;;3.33;;
37077;SDS011;22989;55.998;37.212;2023-03-21T13:01:16;6.13;;;2.97;;
37077;SDS011;22989;55.998;37.212;2023-03-21T13:03:50;7.00;;;2.90;;
37077;SDS011;22989;55.998;37.212;2023-03-21T13:06:31;6.78;;;3.40;;
37077;SDS011;22989;55.998;37.212;2023-03-21T13:09:17;6.28;;;2.80;;
37077;SDS011;22989;55.998;37.212;2023-03-21T13:11:57;4.60;;;2.80;;
37077;SDS011;22989;55.998;37.212;2023-03-21T13:14:33;4.30;;;2.60;;
37077;SDS011;22989;55.998;37.212;2023-03-21T13:17:10;3.38;;;2.50;;
37077;SDS011;22989;55.998;37.212;2023-03-21T13:19:49;3.25;;;2.72;;
37077;SDS011;22989;55.998;37.212;2023-03-21T13:24:51;4.47;;;2.80;;
37077;SDS011;22989;55.998;37.212;2023-03-21T13:30:00;3.30;;;3.00;;
37077;SDS011;22989;55.998;37.212;2023-03-21T13:35:03;5.15;;;3.50;;
37077;SDS011;22989;55.998;37.212;2023-03-21T13:37:38;4.30;;;3.08;;
37077;SDS011;22989;55.998;37.212;2023-03-21T13:40:07;6.90;;;3.05;;
37077;SDS011;22989;55.998;37.212;2023-03-21T13:42:49;7.07;;;2.80;;
37077;SDS011;22989;55.998;37.212;2023-03-21T13:50:58;3.97;;;2.60;;
37077;SDS011;22989;55.998;37.212;2023-03-21T13:53:29;4.88;;;3.20;;
37077;SDS011;22989;55.998;37.212;2023-03-21T14:03:46;4.78;;;3.20;;
37077;SDS011;22989;55.998;37.212;2023-03-21T14:06:12;5.25;;;3.28;;
37077;SDS011;22989;55.998;37.212;2023-03-21T14:08:40;4.65;;;3.35;;
37077;SDS011;22989;55.998;37.212;2023-03-21T14:11:15;5.03;;;3.05;;
37077;SDS011;22989;55.998;37.212;2023-03-21T14:13:43;3.47;;;2.92;;
37077;SDS011;22989;55.998;37.212;2023-03-21T14:16:17;5.60;;;3.25;;
37077;SDS011;22989;55.998;37.212;2023-03-21T14:18:45;4.57;;;3.20;;
37077;SDS011;22989;55.998;37.212;2023-03-21T14:21:18;5.80;;;3.03;;
37077;SDS011;22989;55.998;37.212;2023-03-21T14:23:45;3.53;;;2.85;;
37077;SDS011;22989;55.998;37.212;2023-03-21T14:26:11;4.53;;;2.75;;
37077;SDS011;22989;55.998;37.212;2023-03-21T14:28:38;4.80;;;3.35;;
37077;SDS011;22989;55.998;37.212;2023-03-21T14:31:11;5.07;;;3.72;;
37077;SDS011;22989;55.998;37.212;2023-03-21T14:33:41;3.85;;;2.70;;
37077;SDS011;22989;55.998;37.212;2023-03-21T14:36:13;4.32;;;2.65;;
37077;SDS011;22989;55.998;37.212;2023-03-21T14:38:41;6.05;;;3.20;;
37077;SDS011;22989;55.998;37.212;2023-03-21T14:41:20;5.90;;;3.35;;
37077;SDS011;22989;55.998;37.212;2023-03-21T14:49:25;3.97;;;3.00;;
37077;SDS011;22989;55.998;37.212;2023-03-21T14:51:54;3.42;;;2.80;;
37077;SDS011;22989;55.998;37.212;2023-03-21T14:54:21;5.07;;;3.05;;
37077;SDS011;22989;55.998;37.212;2023-03-21T14:56:48;6.50;;;3.42;;
37077;SDS011;22989;55.998;37.212;2023-03-21T14:59:18;4.05;;;3.15;;
37077;SDS011;22989;55.998;37.212;2023-03-21T15:01:48;7.30;;;3.20;;
37077;SDS011;22989;55.998;37.212;2023-03-21T15:04:16;5.18;;;3.13;;
37077;SDS011;22989;55.998;37.212;2023-03-21T15:06:53;5.60;;;4.00;;
37077;SDS011;22989;55.998;37.212;2023-03-21T15:09:21;5.55;;;2.97;;
37077;SDS011;22989;55.998;37.212;2023-03-21T15:11:51;6.90;;;2.90;;
37077;SDS011;22989;55.998;37.212;2023-03-21T15:14:27;5.85;;;3.22;;
37077;SDS011;22989;55.998;37.212;2023-03-21T15:16:58;4.82;;;2.92;;
37077;SDS011;22989;55.998;37.212;2023-03-21T15:19:30;4.70;;;3.20;;
37077;SDS011;22989;55.998;37.212;2023-03-21T15:21:59;4.97;;;3.15;;
37077;SDS011;22989;55.998;37.212;2023-03-21T15:24:33;6.47;;;3.58;;
37077;SDS011;22989;55.998;37.212;2023-03-21T15:27:04;5.07;;;3.40;;
37077;SDS011;22989;55.998;37.212;2023-03-21T15:29:33;5.00;;;3.05;;
37077;SDS011;22989;55.998;37.212;2023-03-21T15:32:05;5.65;;;3.33;;
37077;SDS011;22989;55.998;37.212;2023-03-21T15:34:36;4.60;;;3.55;;
37077;SDS011;22989;55.998;37.212;2023-03-21T15:37:03;10.52;;;6.57;;
37077;SDS011;22989;55.998;37.212;2023-03-21T15:39:31;7.57;;;4.93;;
37077;SDS011;22989;55.998;37.212;2023-03-21T15:42:21;5.60;;;3.00;;
37077;SDS011;22989;55.998;37.212;2023-03-21T15:44:54;7.85;;;3.50;;
37077;SDS011;22989;55.998;37.212;2023-03-21T15:47:38;7.28;;;3.75;;
37077;SDS011;22989;55.998;37.212;2023-03-21T15:50:23;6.10;;;3.63;;
37077;SDS011;22989;55.998;37.212;2023-03-21T15:52:51;5.72;;;3.83;;
37077;SDS011;22989;55.998;37.212;2023-03-21T15:55:27;5.32;;;3.67;;
37077;SDS011;22989;55.998;37.212;2023-03-21T15:58:02;5.90;;;3.55;;
37077;SDS011;22989;55.998;37.212;2023-03-21T16:00:34;6.28;;;3.80;;
37077;SDS011;22989;55.998;37.212;2023-03-21T16:03:05;7.28;;;5.00;;
37077;SDS011;22989;55.998;37.212;2023-03-21T16:05:38;9.20;;;5.70;;
37077;SDS011;22989;55.998;37.212;2023-03-21T16:08:04;9.73;;;5.32;;
37077;SDS011;22989;55.998;37.212;2023-03-21T16:10:34;7.88;;;5.65;;
37077;SDS011;22989;55.998;37.212;2023-03-21T16:13:02;9.98;;;5.75;;
37077;SDS011;22989;55.998;37.212;2023-03-21T16:15:29;9.88;;;6.15;;
37077;SDS011;22989;55.998;37.212;2023-03-21T16:17:56;11.68;;;6.35;;
37077;SDS011;22989;55.998;37.212;2023-03-21T16:20:28;11.50;;;7.38;;
37077;SDS011;22989;55.998;37.212;2023-03-21T16:22:57;10.30;;;6.97;;
37077;SDS011;22989;55.998;37.212;2023-03-21T16:25:23;10.35;;;7.35;;
37077;SDS011;22989;55.998;37.212;2023-03-21T16:27:49;14.02;;;8.00;;
37077;SDS011;22989;55.998;37.212;2023-03-21T16:30:16;11.90;;;7.53;;
37077;SDS011;22989;55.998;37.212;2023-03-21T16:32:44;12.13;;;7.85;;
37077;SDS011;22989;55.998;37.212;2023-03-21T16:35:10;13.70;;;8.30;;
37077;SDS011;22989;55.998;37.212;2023-03-21T16:37:35;12.07;;;8.07;;
37077;SDS011;22989;55.998;37.212;2023-03-21T16:40:02;12.52;;;8.57;;
37077;SDS011;22989;55.998;37.212;2023-03-21T16:42:30;13.32;;;9.00;;
37077;SDS011;22989;55.998;37.212;2023-03-21T16:44:56;15.65;;;9.50;;